createdAt,value
2022-08-20T00:04:10.384Z,99959.28
2022-08-20T00:09:12.884Z,99959.91
2022-08-20T00:14:14.482Z,99956.56
2022-08-20T00:19:15.923Z,99960.78
2022-08-20T00:24:17.440Z,99956.56
2022-08-20T00:29:20.120Z,99958.69
2022-08-20T00:34:21.936Z,99963.06
2022-08-20T00:39:23.475Z,99960.16
2022-08-20T00:44:25.218Z,99949.31
2022-08-20T00:49:30.735Z,99959.34
2022-08-20T00:54:43.971Z,99948.25
2022-08-20T00:59:45.319Z,99961.19
2022-08-20T01:04:56.686Z,99964.94
2022-08-20T01:09:59.965Z,99958.50
2022-08-20T01:15:02.824Z,99974.56
2022-08-20T01:20:17.497Z,99972.28
2022-08-20T01:25:33.099Z,99979.56
2022-08-20T01:30:34.942Z,99982.75
2022-08-20T01:35:41.431Z,99986.91
2022-08-20T01:41:02.330Z,99979.00
2022-08-20T01:46:04.118Z,99993.38
2022-08-20T01:51:23.478Z,99989.44
2022-08-20T01:56:28.834Z,99991.94
2022-08-20T02:01:46.394Z,99991.50
2022-08-20T02:06:56.977Z,99999.88
2022-08-20T02:12:00.093Z,100005.09
2022-08-20T02:17:01.542Z,100004.88
2022-08-20T02:22:11.010Z,100001.50
2022-08-20T02:27:13.426Z,99996.09
2022-08-20T02:32:24.468Z,99999.44
2022-08-20T02:37:36.698Z,100005.72
2022-08-20T02:42:42.425Z,100013.66
2022-08-20T02:47:45.465Z,100018.88
2022-08-20T02:52:51.890Z,100017.41
2022-08-20T02:57:58.682Z,100032.03
2022-08-20T03:03:01.955Z,100023.72
2022-08-20T03:08:04.209Z,100026.44
2022-08-20T03:13:06.727Z,100023.28
2022-08-20T03:18:08.135Z,100014.78
2022-08-20T03:23:09.732Z,100012.63
2022-08-20T03:28:11.485Z,100021.59
2022-08-20T03:33:13.042Z,100012.63
2022-08-20T03:38:17.438Z,100015.78
2022-08-20T03:43:22.211Z,100018.28
2022-08-20T03:48:23.772Z,100011.63
2022-08-20T03:53:25.170Z,100017.69
2022-08-20T03:58:36.112Z,100009.56
2022-08-20T04:03:38.141Z,100014.78
2022-08-20T04:08:41.491Z,100010.38
2022-08-20T04:13:43.490Z,100019.16
2022-08-20T04:19:01.730Z,100009.81
2022-08-20T04:24:05.761Z,100026.66
2022-08-20T04:29:07.301Z,100026.88
2022-08-20T04:34:08.782Z,100020.00
2022-08-20T04:39:10.247Z,100023.97
2022-08-20T04:44:11.714Z,100025.88
2022-08-20T04:49:13.198Z,100016.69
2022-08-20T04:54:14.670Z,100020.22
2022-08-20T04:59:16.304Z,100030.22
2022-08-20T05:04:17.715Z,100030.44
2022-08-20T05:09:19.205Z,100031.69
2022-08-20T05:14:20.658Z,100050.72
2022-08-20T05:19:22.365Z,100050.09
2022-08-20T05:24:24.479Z,100050.91
2022-08-20T05:29:26.045Z,100057.59
2022-08-20T05:34:27.429Z,100065.09
2022-08-20T05:39:28.818Z,100067.19
2022-08-20T05:44:31.431Z,100074.91
2022-08-20T05:49:34.006Z,100079.28
2022-08-20T05:54:37.596Z,100099.28
2022-08-20T05:59:39.587Z,100097.25
2022-08-20T06:04:41.320Z,100084.31
2022-08-20T06:09:44.489Z,100081.16
2022-08-20T06:14:47.306Z,100070.09
2022-08-20T06:19:49.199Z,100077.41
2022-08-20T06:24:51.560Z,100085.53
2022-08-20T06:29:54.094Z,100084.47
2022-08-20T06:34:55.558Z,100087.59
2022-08-20T06:40:02.864Z,100100.34
2022-08-20T06:45:05.774Z,100109.78
2022-08-20T06:50:09.926Z,100114.56
2022-08-20T06:55:11.458Z,100103.88
2022-08-20T07:00:19.476Z,100098.84
2022-08-20T07:05:20.867Z,100107.84
2022-08-20T07:10:24.672Z,100104.28
2022-08-20T07:15:27.230Z,100108.28
2022-08-20T07:20:31.546Z,100112.25
2022-08-20T07:25:33.786Z,100107.44
2022-08-20T07:30:57.115Z,100110.81
2022-08-20T07:36:03.995Z,100105.38
2022-08-20T07:41:13.212Z,100103.88
2022-08-20T07:46:21.351Z,100113.25
2022-08-20T07:51:22.953Z,100121.41
2022-08-20T07:56:24.674Z,100134.81
2022-08-20T08:01:30.426Z,100120.22
2022-08-20T08:06:32.463Z,100131.47
2022-08-20T08:11:37.863Z,100138.47
2022-08-20T08:16:39.872Z,100123.59
2022-08-20T08:21:42.000Z,100117.38
2022-08-20T08:26:44.129Z,100112.53
2022-08-20T08:31:45.622Z,100115.81
2022-08-20T08:36:47.318Z,100124.63
2022-08-20T08:41:50.780Z,100130.59
2022-08-20T08:46:59.222Z,100129.09
2022-08-20T08:52:08.534Z,100128.84
2022-08-20T08:57:10.516Z,100128.25
2022-08-20T09:02:20.269Z,100112.50
2022-08-20T09:07:24.768Z,100125.16
2022-08-20T09:12:27.694Z,100129.00
2022-08-20T09:17:29.123Z,100119.75
2022-08-20T09:22:33.285Z,100115.84
2022-08-20T09:27:34.669Z,100117.50
2022-08-20T09:32:37.608Z,100121.97
2022-08-20T09:37:39.545Z,100129.63
2022-08-20T09:42:41.867Z,100114.50
2022-08-20T09:47:56.671Z,100114.19
2022-08-20T09:53:01.076Z,100118.59
2022-08-20T09:58:06.365Z,100102.22
2022-08-20T10:03:07.828Z,100087.81
2022-08-20T10:08:11.092Z,100088.91
2022-08-20T10:13:12.763Z,100093.25
2022-08-20T10:18:16.795Z,100094.25
2022-08-20T10:23:18.228Z,100095.66
2022-08-20T10:28:19.637Z,100101.31
2022-08-20T10:33:21.134Z,100086.97
2022-08-20T10:38:22.575Z,100089.13
2022-08-20T10:43:23.971Z,100086.06
2022-08-20T10:48:25.950Z,100082.91
2022-08-20T10:53:27.489Z,100087.56
2022-08-20T10:58:37.503Z,100077.97
2022-08-20T11:03:40.755Z,100085.31
2022-08-20T11:08:42.203Z,100072.31
2022-08-20T11:13:43.490Z,100083.41
2022-08-20T11:18:47.354Z,100059.28
2022-08-20T11:23:49.289Z,100070.16
2022-08-20T11:28:51.320Z,100064.88
2022-08-20T11:33:52.752Z,100060.28
2022-08-20T11:38:54.217Z,100050.50
2022-08-20T11:44:20.287Z,100061.19
2022-08-20T11:49:17.050Z,100043.78
2022-08-20T11:54:18.553Z,100049.13
2022-08-20T11:59:20.859Z,100043.72
2022-08-20T12:04:22.452Z,100039.84
2022-08-20T12:09:26.653Z,100038.53
2022-08-20T12:14:28.018Z,100044.69
2022-08-20T12:19:29.572Z,100037.94
2022-08-20T12:24:30.953Z,100017.97
2022-08-20T12:29:33.423Z,100029.44
2022-08-20T12:34:36.686Z,100029.03
2022-08-20T12:39:39.854Z,100014.91
2022-08-20T12:44:41.712Z,100011.63
2022-08-20T12:49:46.388Z,100011.00
2022-08-20T12:54:48.354Z,100007.06
2022-08-20T12:59:49.773Z,99998.88
2022-08-20T13:04:51.190Z,100006.38
2022-08-20T13:09:52.645Z,99994.84
2022-08-20T13:14:53.921Z,100007.97
2022-08-20T13:19:55.371Z,99998.72
2022-08-20T13:24:56.717Z,100004.19
2022-08-20T13:29:59.172Z,99991.53
2022-08-20T13:35:00.719Z,99984.47
2022-08-20T13:40:02.333Z,99985.31
2022-08-20T13:45:04.046Z,99986.75
2022-08-20T13:50:17.516Z,99975.38
2022-08-20T13:55:22.053Z,99979.41
2022-08-20T14:00:31.809Z,99976.84
2022-08-20T14:05:34.528Z,99981.97
2022-08-20T14:10:37.089Z,99973.38
2022-08-20T14:15:38.955Z,99961.28
2022-08-20T14:20:40.934Z,99968.69
2022-08-20T14:25:45.983Z,99977.25
2022-08-20T14:30:53.440Z,99975.22
2022-08-20T14:35:55.692Z,99982.44
2022-08-20T14:40:57.589Z,99987.06
2022-08-20T14:45:58.944Z,99991.38
2022-08-20T14:51:00.770Z,99991.97
2022-08-20T14:56:02.309Z,99988.50
2022-08-20T15:01:03.746Z,99980.94
2022-08-20T15:06:10.901Z,99974.28
2022-08-20T15:11:23.311Z,99987.06
2022-08-20T15:16:24.747Z,99980.28
2022-08-20T15:21:29.916Z,99976.13
2022-08-20T15:26:47.198Z,99964.88
2022-08-20T15:31:48.571Z,99978.41
2022-08-20T15:36:51.210Z,99988.97
2022-08-20T15:41:52.809Z,99978.59
2022-08-20T15:46:59.987Z,99981.34
2022-08-20T15:52:01.971Z,99980.22
2022-08-20T15:57:12.490Z,99984.22
2022-08-20T16:02:46.022Z,99996.06
2022-08-20T16:08:02.984Z,99993.47
2022-08-20T16:13:20.388Z,99991.47
2022-08-20T16:18:30.516Z,99999.97
2022-08-20T16:23:35.382Z,99996.69
2022-08-20T16:29:03.279Z,100008.34
2022-08-20T16:34:42.307Z,100003.13
2022-08-20T16:40:04.081Z,100011.84
2022-08-20T16:45:11.379Z,100017.06
2022-08-20T16:50:19.827Z,100031.09
2022-08-20T16:55:23.011Z,100030.72
2022-08-20T17:00:30.262Z,100047.72
2022-08-20T17:05:53.285Z,100037.97
2022-08-20T17:11:05.635Z,100035.34
2022-08-20T17:16:13.119Z,100052.38
2022-08-20T17:21:22.898Z,100060.34
2022-08-20T17:26:31.947Z,100066.97
2022-08-20T17:31:40.896Z,100069.31
2022-08-20T17:37:02.674Z,100071.19
2022-08-20T17:42:08.963Z,100076.91
2022-08-20T17:47:18.493Z,100082.91
2022-08-20T17:52:28.237Z,100083.34
2022-08-20T17:57:36.906Z,100091.53
2022-08-20T18:02:38.254Z,100093.88
2022-08-20T18:07:50.687Z,100104.25
2022-08-20T18:13:06.616Z,100117.50
2022-08-20T18:18:23.199Z,100124.53
2022-08-20T18:23:33.032Z,100125.94
2022-08-20T18:28:41.420Z,100121.25
2022-08-20T18:33:43.447Z,100137.53
2022-08-20T18:39:05.683Z,100137.31
2022-08-20T18:44:13.638Z,100147.81
2022-08-20T18:49:25.511Z,100144.28
2022-08-20T18:54:32.470Z,100143.50
2022-08-20T18:59:40.731Z,100161.31
2022-08-20T19:04:46.810Z,100162.13
2022-08-20T19:10:27.596Z,100170.41
2022-08-20T19:15:32.336Z,100174.81
2022-08-20T19:20:36.475Z,100174.00
2022-08-20T19:25:48.285Z,100173.81
2022-08-20T19:30:51.303Z,100174.06
2022-08-20T19:35:52.691Z,100187.88
2022-08-20T19:40:54.079Z,100182.03
2022-08-20T19:46:15.650Z,100187.88
2022-08-20T19:51:35.507Z,100180.81
2022-08-20T19:56:42.205Z,100171.63
2022-08-20T20:02:00.137Z,100181.22
2022-08-20T20:07:02.171Z,100184.16
2022-08-20T20:12:10.795Z,100188.69
2022-08-20T20:17:29.922Z,100188.91
2022-08-20T20:22:35.922Z,100181.19
2022-08-20T20:27:37.778Z,100177.41
2022-08-20T20:32:43.981Z,100184.09
2022-08-20T20:37:56.349Z,100187.03
2022-08-20T20:43:06.530Z,100179.06
2022-08-20T20:48:14.879Z,100177.78
2022-08-20T20:53:35.135Z,100179.91
2022-08-20T20:58:55.807Z,100182.41
2022-08-20T21:03:57.524Z,100174.66
2022-08-20T21:08:58.919Z,100183.22
2022-08-20T21:14:00.336Z,100178.41
2022-08-20T21:19:05.217Z,100183.47
2022-08-20T21:24:08.124Z,100181.59
2022-08-20T21:29:13.018Z,100185.53
2022-08-20T21:34:15.627Z,100187.81
2022-08-20T21:39:17.042Z,100179.44
2022-08-20T21:44:25.004Z,100196.59
2022-08-20T21:49:28.247Z,100190.75
2022-08-20T21:54:29.785Z,100195.16
2022-08-20T21:59:33.863Z,100186.56
2022-08-20T22:04:35.783Z,100202.00
2022-08-20T22:09:38.830Z,100202.00
2022-08-20T22:14:40.221Z,100193.22
2022-08-20T22:19:41.701Z,100201.56
2022-08-20T22:24:45.568Z,100203.66
2022-08-20T22:29:46.921Z,100201.13
2022-08-20T22:34:48.471Z,100196.91
2022-08-20T22:39:49.848Z,100200.03
2022-08-20T22:44:51.418Z,100194.41
2022-08-20T22:49:53.715Z,100182.69
2022-08-20T22:54:55.693Z,100198.75
2022-08-20T22:59:57.119Z,100190.41
2022-08-20T23:04:58.545Z,100201.38
2022-08-20T23:09:59.939Z,100208.69
2022-08-20T23:15:01.427Z,100213.47
2022-08-20T23:20:04.622Z,100198.84
2022-08-20T23:25:07.620Z,100188.75
2022-08-20T23:30:09.508Z,100180.84
2022-08-20T23:35:12.080Z,100190.84
2022-08-20T23:40:15.795Z,100197.56
2022-08-20T23:45:17.992Z,100194.78
2022-08-20T23:50:24.262Z,100186.63
2022-08-20T23:55:25.933Z,100198.53
